createdAt,value
2023-04-16T00:01:53.271Z,25.30
2023-04-16T00:04:24.527Z,27.22
2023-04-16T00:06:55.691Z,31.48
2023-04-16T00:09:26.789Z,24.55
2023-04-16T00:11:57.872Z,30.27
2023-04-16T00:14:28.989Z,26.35
2023-04-16T00:17:00.181Z,24.00
2023-04-16T00:19:31.598Z,25.35
2023-04-16T00:22:02.689Z,27.13
2023-04-16T00:24:33.770Z,26.02
2023-04-16T00:27:04.866Z,26.50
2023-04-16T00:29:36.081Z,30.68
2023-04-16T00:32:08.544Z,23.75
2023-04-16T00:34:39.644Z,24.50
2023-04-16T00:37:10.717Z,25.62
2023-04-16T00:39:41.797Z,24.25
2023-04-16T00:42:12.884Z,26.00
2023-04-16T00:44:43.965Z,26.95
2023-04-16T00:47:17.162Z,24.60
2023-04-16T00:49:50.393Z,25.90
2023-04-16T00:52:20.309Z,23.50
2023-04-16T00:54:51.728Z,25.05
2023-04-16T00:57:25.729Z,29.02
2023-04-16T01:00:01.854Z,24.15
2023-04-16T01:02:36.399Z,26.48
2023-04-16T01:05:08.707Z,22.27
2023-04-16T01:07:39.781Z,22.70
2023-04-16T01:10:11.479Z,22.73
2023-04-16T01:12:42.557Z,24.20
2023-04-16T01:15:14.082Z,26.17
2023-04-16T01:17:46.727Z,24.95
2023-04-16T01:20:17.971Z,21.87
2023-04-16T01:22:49.451Z,24.85
2023-04-16T01:25:20.450Z,21.97
2023-04-16T01:27:55.978Z,24.50
2023-04-16T01:30:27.087Z,25.62
2023-04-16T01:32:58.940Z,22.67
2023-04-16T01:35:30.109Z,25.10
2023-04-16T01:38:01.189Z,27.67
2023-04-16T01:40:32.423Z,22.87
2023-04-16T01:43:03.714Z,23.22
2023-04-16T01:45:38.509Z,24.90
2023-04-16T01:48:10.891Z,21.62
2023-04-16T01:50:41.997Z,24.70
2023-04-16T01:53:13.101Z,23.47
2023-04-16T01:55:44.190Z,22.87
2023-04-16T01:58:15.906Z,25.02
2023-04-16T02:00:47.002Z,24.80
2023-04-16T02:03:19.739Z,24.07
2023-04-16T02:05:51.153Z,23.42
2023-04-16T02:08:22.296Z,27.35
2023-04-16T02:10:53.661Z,24.32
2023-04-16T02:13:26.243Z,23.77
2023-04-16T02:15:57.745Z,22.90
2023-04-16T02:18:28.959Z,27.93
2023-04-16T02:21:01.645Z,26.07
2023-04-16T02:23:32.705Z,26.37
2023-04-16T02:26:05.382Z,23.85
2023-04-16T02:28:36.635Z,25.37
2023-04-16T02:31:08.024Z,23.22
2023-04-16T02:33:39.861Z,22.75
2023-04-16T02:36:12.351Z,20.27
2023-04-16T02:38:56.917Z,23.15
2023-04-16T02:44:33.523Z,22.67
2023-04-16T02:47:22.187Z,24.47
2023-04-16T02:49:55.887Z,22.65
2023-04-16T02:52:27.719Z,20.97
2023-04-16T02:55:10.478Z,26.20
2023-04-16T02:57:43.257Z,23.18
2023-04-16T03:00:15.184Z,24.43
2023-04-16T03:02:53.284Z,29.27
2023-04-16T03:05:33.970Z,24.50
2023-04-16T03:08:11.327Z,26.27
2023-04-16T03:10:46.041Z,24.40
2023-04-16T03:13:18.278Z,24.30
2023-04-16T03:15:56.955Z,28.00
2023-04-16T03:18:35.749Z,23.87
2023-04-16T03:23:49.185Z,25.60
2023-04-16T03:29:33.979Z,25.55
2023-04-16T03:32:42.170Z,28.60
2023-04-16T03:35:00.634Z,23.62
2023-04-16T03:40:49.734Z,25.35
2023-04-16T03:43:20.858Z,26.25
2023-04-16T03:45:52.110Z,26.77
2023-04-16T03:48:23.116Z,24.85
2023-04-16T03:50:54.082Z,26.33
2023-04-16T03:53:27.126Z,26.70
2023-04-16T03:55:57.543Z,26.05
2023-04-16T03:58:28.784Z,23.55
2023-04-16T04:01:02.021Z,25.25
2023-04-16T04:03:33.249Z,26.50
2023-04-16T04:06:12.800Z,24.90
2023-04-16T04:08:45.068Z,25.17
2023-04-16T04:11:18.580Z,25.50
2023-04-16T04:13:52.779Z,26.70
2023-04-16T04:16:27.174Z,27.40
2023-04-16T04:18:58.188Z,24.77
2023-04-16T04:21:32.797Z,25.37
2023-04-16T04:26:34.885Z,25.32
2023-04-16T04:29:06.092Z,24.55
2023-04-16T04:31:37.765Z,28.12
2023-04-16T04:34:08.931Z,24.72
2023-04-16T04:36:40.040Z,24.12
2023-04-16T04:39:11.293Z,28.85
2023-04-16T04:41:42.517Z,25.60
2023-04-16T04:44:13.589Z,30.10
2023-04-16T04:46:44.711Z,26.33
2023-04-16T04:49:15.778Z,26.23
2023-04-16T04:51:47.856Z,30.50
2023-04-16T04:54:18.986Z,30.90
2023-04-16T04:56:50.068Z,28.38
2023-04-16T04:59:21.306Z,25.92
2023-04-16T05:01:52.432Z,26.27
2023-04-16T05:04:23.590Z,29.10
2023-04-16T05:06:54.745Z,27.60
2023-04-16T05:09:25.831Z,27.20
2023-04-16T05:11:56.931Z,34.48
2023-04-16T05:14:28.026Z,26.33
2023-04-16T05:16:59.381Z,26.30
2023-04-16T05:19:30.603Z,27.55
2023-04-16T05:22:02.983Z,29.32
2023-04-16T05:24:34.029Z,33.25
2023-04-16T05:27:05.048Z,27.45
2023-04-16T05:29:36.113Z,28.45
2023-04-16T05:32:07.231Z,29.20
2023-04-16T05:34:38.533Z,30.08
2023-04-16T05:37:09.696Z,27.65
2023-04-16T05:39:40.770Z,29.12
2023-04-16T05:42:11.877Z,30.72
2023-04-16T05:44:43.733Z,29.52
2023-04-16T05:47:14.838Z,32.25
2023-04-16T05:49:46.066Z,29.42
2023-04-16T05:52:17.213Z,28.12
2023-04-16T05:54:48.307Z,27.55
2023-04-16T05:57:19.396Z,32.20
2023-04-16T05:59:50.959Z,30.75
2023-04-16T06:02:22.456Z,28.98
2023-04-16T06:04:54.030Z,28.35
2023-04-16T06:07:25.110Z,29.05
2023-04-16T06:09:56.185Z,31.90
2023-04-16T06:12:27.280Z,30.55
2023-04-16T06:14:58.271Z,31.55
2023-04-16T06:17:29.536Z,32.45
2023-04-16T06:20:00.607Z,31.95
2023-04-16T06:22:31.812Z,31.85
2023-04-16T06:25:02.979Z,31.70
2023-04-16T06:27:34.334Z,38.75
2023-04-16T06:30:05.422Z,31.70
2023-04-16T06:32:36.618Z,32.17
2023-04-16T06:35:09.528Z,30.72
2023-04-16T06:37:43.380Z,32.25
2023-04-16T06:40:15.151Z,31.12
2023-04-16T06:42:46.218Z,31.80
2023-04-16T06:45:18.476Z,30.23
2023-04-16T06:47:49.667Z,33.92
2023-04-16T06:50:20.826Z,32.53
2023-04-16T06:52:51.884Z,31.35
2023-04-16T06:55:22.988Z,31.93
2023-04-16T06:57:54.089Z,36.48
2023-04-16T07:00:25.173Z,31.52
2023-04-16T07:02:58.384Z,32.35
2023-04-16T07:05:28.681Z,30.88
2023-04-16T07:07:59.842Z,32.08
2023-04-16T07:10:30.915Z,32.90
2023-04-16T07:13:02.693Z,31.25
2023-04-16T07:15:33.689Z,38.78
2023-04-16T07:18:04.859Z,35.25
2023-04-16T07:20:37.352Z,32.78
2023-04-16T07:23:08.540Z,36.80
2023-04-16T07:25:39.961Z,34.35
2023-04-16T07:28:11.140Z,31.27
2023-04-16T07:30:42.490Z,29.87
2023-04-16T07:33:13.586Z,32.50
2023-04-16T07:35:44.684Z,33.58
2023-04-16T07:38:16.114Z,32.23
2023-04-16T07:40:47.431Z,30.82
2023-04-16T07:43:18.956Z,32.15
2023-04-16T07:45:49.925Z,33.13
2023-04-16T07:48:21.114Z,30.90
2023-04-16T07:51:11.123Z,29.65
2023-04-16T07:53:54.740Z,29.67
2023-04-16T07:56:28.646Z,33.40
2023-04-16T07:59:07.959Z,34.05
2023-04-16T08:01:35.115Z,32.45
2023-04-16T08:04:09.495Z,31.62
2023-04-16T08:06:40.697Z,33.00
2023-04-16T08:09:13.488Z,39.55
2023-04-16T08:11:46.665Z,31.73
2023-04-16T08:14:18.006Z,32.25
2023-04-16T08:16:48.730Z,34.25
2023-04-16T08:19:19.465Z,34.85
2023-04-16T08:21:50.356Z,35.15
2023-04-16T08:24:21.110Z,35.48
2023-04-16T08:26:51.965Z,29.92
2023-04-16T08:29:27.634Z,32.60
2023-04-16T08:32:02.288Z,31.12
2023-04-16T08:34:36.017Z,29.95
2023-04-16T08:37:07.102Z,34.45
2023-04-16T08:39:41.396Z,30.88
2023-04-16T09:05:09.235Z,29.63
2023-04-16T09:08:44.014Z,32.40
2023-04-16T09:11:15.575Z,34.55
2023-04-16T09:13:34.076Z,30.27
2023-04-16T09:35:43.947Z,30.90
2023-04-16T09:38:15.101Z,29.70
2023-04-16T09:40:46.347Z,33.92
2023-04-16T09:43:25.669Z,29.98
2023-04-16T09:45:55.367Z,32.95
2023-04-16T09:48:46.790Z,31.77
2023-04-16T10:02:15.400Z,32.73
2023-04-16T10:03:48.357Z,29.37
2023-04-16T10:06:23.064Z,30.43
2023-04-16T10:08:57.398Z,32.85
2023-04-16T10:11:54.213Z,31.27
2023-04-16T10:14:26.612Z,30.50
2023-04-16T10:17:01.652Z,29.80
2023-04-16T10:19:45.954Z,27.52
2023-04-16T10:22:20.669Z,29.98
2023-04-16T10:24:55.510Z,33.80
2023-04-16T10:27:28.188Z,32.80
2023-04-16T10:30:02.790Z,28.73
2023-04-16T10:32:43.620Z,30.68
2023-04-16T10:35:27.883Z,31.02
2023-04-16T10:38:03.620Z,39.92
2023-04-16T10:40:34.784Z,32.50
2023-04-16T10:43:10.131Z,36.80
2023-04-16T10:45:56.145Z,33.58
2023-04-16T10:51:05.942Z,33.40
2023-04-16T10:53:38.217Z,33.30
2023-04-16T10:56:14.113Z,35.98
2023-04-16T10:58:51.316Z,32.67
2023-04-16T11:02:57.403Z,35.28
2023-04-16T11:10:47.409Z,33.28
2023-04-16T11:13:19.732Z,33.35
2023-04-16T11:15:51.991Z,35.13
2023-04-16T11:22:12.126Z,32.45
2023-04-16T11:27:43.528Z,33.05
2023-04-16T11:31:13.346Z,36.65
2023-04-16T11:34:01.347Z,38.23
2023-04-16T11:36:12.520Z,34.03
2023-04-16T11:46:26.740Z,33.73
2023-04-16T11:49:00.016Z,34.73
2023-04-16T11:51:38.139Z,35.75
2023-04-16T11:55:03.817Z,33.88
2023-04-16T12:00:34.690Z,33.38
2023-04-16T12:03:08.109Z,36.80
2023-04-16T12:05:42.919Z,35.15
2023-04-16T12:08:14.865Z,37.60
2023-04-16T12:10:59.318Z,36.33
2023-04-16T12:13:32.403Z,44.85
2023-04-16T12:16:05.662Z,42.38
2023-04-16T12:18:39.815Z,41.02
2023-04-16T12:21:12.081Z,38.90
2023-04-16T12:23:43.696Z,36.48
2023-04-16T12:26:18.661Z,30.82
2023-04-16T12:29:10.349Z,39.67
2023-04-16T12:31:45.429Z,38.43
2023-04-16T12:34:21.035Z,37.35
2023-04-16T12:36:54.605Z,32.70
2023-04-16T12:39:29.035Z,34.53
2023-04-16T12:42:00.132Z,40.78
2023-04-16T12:44:31.519Z,36.05
2023-04-16T12:47:02.439Z,38.78
2023-04-16T12:49:35.031Z,38.35
2023-04-16T12:52:06.318Z,35.60
2023-04-16T12:54:40.679Z,32.65
2023-04-16T12:57:15.294Z,31.50
2023-04-16T12:59:46.228Z,32.85
2023-04-16T13:02:40.914Z,39.60
2023-04-16T13:04:57.592Z,39.95
2023-04-16T13:07:58.534Z,40.70
2023-04-16T13:10:06.688Z,40.58
2023-04-16T13:12:40.482Z,42.08
2023-04-16T13:17:56.075Z,46.92
2023-04-16T13:20:27.228Z,49.25
2023-04-16T13:22:58.352Z,45.73
2023-04-16T13:25:30.823Z,49.70
2023-04-16T13:28:04.659Z,47.08
2023-04-16T13:30:36.756Z,48.92
2023-04-16T13:33:16.945Z,51.08
2023-04-16T13:35:49.216Z,45.95
2023-04-16T13:38:20.636Z,44.98
2023-04-16T13:40:52.955Z,52.60
2023-04-16T13:43:24.999Z,53.70
2023-04-16T13:45:58.957Z,52.93
2023-04-16T13:48:31.776Z,45.85
2023-04-16T13:51:34.398Z,53.70
2023-04-16T13:54:07.607Z,51.95
2023-04-16T14:00:03.941Z,47.38
2023-04-16T14:01:13.621Z,51.02
2023-04-16T14:02:41.929Z,45.35
2023-04-16T14:05:14.449Z,43.50
2023-04-16T14:07:45.386Z,43.68
2023-04-16T14:10:16.726Z,43.30
2023-04-16T14:12:49.590Z,45.75
2023-04-16T14:16:01.140Z,44.20
2023-04-16T14:18:28.873Z,41.08
2023-04-16T14:21:12.374Z,43.73
2023-04-16T14:24:01.752Z,41.28
2023-04-16T14:26:20.119Z,43.63
2023-04-16T14:28:51.114Z,43.58
2023-04-16T14:31:22.069Z,46.98
2023-04-16T14:33:52.884Z,40.83
2023-04-16T14:36:23.637Z,38.80
2023-04-16T14:38:54.341Z,45.35
2023-04-16T14:41:25.171Z,37.20
2023-04-16T14:43:55.920Z,43.25
2023-04-16T14:46:28.175Z,41.55
2023-04-16T14:48:58.921Z,46.50
2023-04-16T14:51:29.751Z,41.65
2023-04-16T14:54:00.815Z,46.10
2023-04-16T14:56:31.794Z,53.68
2023-04-16T14:59:02.625Z,43.68
2023-04-16T15:01:37.280Z,44.55
2023-04-16T15:04:12.759Z,41.70
2023-04-16T15:07:11.591Z,41.77
2023-04-16T15:09:42.425Z,40.70
2023-04-16T15:12:14.475Z,40.00
2023-04-16T15:14:45.577Z,38.08
2023-04-16T15:17:16.517Z,38.13
2023-04-16T15:19:47.414Z,38.20
2023-04-16T15:22:18.182Z,37.53
2023-04-16T15:24:48.955Z,46.02
2023-04-16T15:27:21.606Z,37.20
2023-04-16T15:29:52.364Z,43.17
2023-04-16T15:32:23.259Z,40.88
2023-04-16T15:34:54.062Z,42.85
2023-04-16T15:37:24.799Z,36.35
2023-04-16T15:39:55.538Z,34.75
2023-04-16T15:42:29.497Z,38.15
2023-04-16T15:45:00.462Z,41.10
2023-04-16T15:47:31.269Z,38.83
2023-04-16T15:50:02.158Z,38.45
2023-04-16T15:52:33.319Z,41.42
2023-04-16T15:55:06.613Z,43.20
2023-04-16T15:57:37.446Z,38.30
2023-04-16T16:00:12.514Z,43.73
2023-04-16T16:02:44.673Z,39.63
2023-04-16T16:05:18.974Z,43.83
2023-04-16T16:07:49.925Z,39.45
2023-04-16T16:10:21.570Z,38.90
2023-04-16T16:12:52.426Z,39.55
2023-04-16T16:15:27.542Z,41.90
2023-04-16T16:17:59.025Z,42.73
2023-04-16T16:20:29.942Z,40.38
2023-04-16T16:23:00.693Z,42.30
2023-04-16T16:25:32.999Z,40.03
2023-04-16T16:28:06.286Z,42.15
2023-04-16T16:30:37.564Z,38.15
2023-04-16T16:33:08.489Z,38.23
2023-04-16T16:35:39.259Z,35.48
2023-04-16T16:38:11.333Z,35.58
2023-04-16T16:40:50.672Z,35.23
2023-04-16T16:43:21.589Z,35.78
2023-04-16T16:45:55.401Z,32.85
2023-04-16T16:48:27.552Z,38.42
2023-04-16T16:50:58.598Z,40.88
2023-04-16T16:53:29.850Z,42.65
2023-04-16T16:56:00.753Z,39.53
2023-04-16T16:58:31.731Z,39.80
2023-04-16T17:01:02.748Z,38.30
2023-04-16T17:03:33.866Z,40.08
2023-04-16T17:06:04.753Z,39.80
2023-04-16T17:08:35.607Z,35.10
2023-04-16T17:11:09.360Z,33.18
2023-04-16T17:13:40.130Z,36.65
2023-04-16T17:16:11.107Z,36.73
2023-04-16T17:18:41.918Z,33.58
2023-04-16T17:21:16.543Z,35.63
2023-04-16T17:23:47.768Z,34.98
2023-04-16T17:26:18.615Z,33.10
2023-04-16T17:28:49.396Z,41.10
2023-04-16T17:31:20.236Z,32.45
2023-04-16T17:33:52.308Z,37.05
2023-04-16T17:36:24.220Z,35.38
2023-04-16T17:38:55.047Z,39.40
2023-04-16T17:41:26.004Z,33.45
2023-04-16T17:43:56.729Z,31.70
2023-04-16T17:46:28.207Z,30.40
2023-04-16T17:48:59.010Z,29.63
2023-04-16T17:51:29.834Z,32.10
2023-04-16T17:54:00.599Z,33.45
2023-04-16T17:56:31.941Z,32.55
2023-04-16T17:59:02.739Z,49.95
2023-04-16T18:01:33.538Z,34.30
2023-04-16T18:04:04.452Z,30.12
2023-04-16T18:06:35.180Z,34.33
2023-04-16T18:09:06.845Z,36.58
2023-04-16T18:11:38.292Z,31.60
2023-04-16T18:14:10.695Z,31.60
2023-04-16T18:16:41.599Z,31.55
2023-04-16T18:22:29.662Z,30.82
2023-04-16T18:27:42.845Z,31.25
2023-04-16T18:33:04.255Z,29.85
2023-04-16T18:35:18.348Z,32.10
2023-04-16T18:37:49.495Z,29.67
2023-04-16T18:40:20.513Z,35.78
2023-04-16T18:42:51.319Z,30.15
2023-04-16T18:45:22.209Z,29.85
2023-04-16T18:47:53.233Z,33.53
2023-04-16T18:50:24.050Z,32.95
2023-04-16T18:52:55.299Z,31.33
2023-04-16T18:55:26.064Z,32.65
2023-04-16T18:57:57.152Z,31.23
2023-04-16T19:00:27.979Z,30.27
2023-04-16T19:02:59.209Z,33.08
2023-04-16T19:05:30.400Z,29.65
2023-04-16T19:08:01.382Z,31.70
2023-04-16T19:10:32.495Z,29.05
2023-04-16T19:13:03.594Z,32.98
2023-04-16T19:15:34.989Z,33.48
2023-04-16T19:18:06.260Z,32.65
2023-04-16T19:20:40.712Z,29.40
2023-04-16T19:23:11.739Z,31.30
2023-04-16T19:25:42.933Z,30.90
2023-04-16T19:28:14.078Z,30.23
2023-04-16T19:30:47.804Z,32.58
2023-04-16T19:33:19.123Z,32.30
2023-04-16T19:35:50.641Z,34.58
2023-04-16T19:38:21.686Z,32.60
2023-04-16T19:40:52.936Z,31.93
2023-04-16T19:43:24.099Z,34.27
2023-04-16T19:45:56.521Z,31.70
2023-04-16T19:48:27.600Z,31.05
2023-04-16T19:50:58.483Z,28.92
2023-04-16T19:53:29.601Z,29.55
2023-04-16T19:56:00.739Z,32.33
2023-04-16T19:58:31.876Z,36.17
2023-04-16T20:01:03.010Z,36.55
2023-04-16T20:03:34.236Z,32.70
2023-04-16T20:06:06.665Z,38.55
2023-04-16T20:08:37.702Z,31.50
2023-04-16T20:11:09.689Z,33.18
2023-04-16T20:13:40.810Z,32.48
2023-04-16T20:16:13.363Z,33.63
2023-04-16T20:18:44.518Z,33.95
2023-04-16T20:21:16.780Z,32.15
2023-04-16T20:23:47.928Z,35.58
2023-04-16T20:26:22.081Z,37.80
2023-04-16T20:28:53.231Z,34.48
2023-04-16T20:31:24.308Z,34.20
2023-04-16T20:33:55.551Z,34.58
2023-04-16T20:36:27.189Z,34.83
2023-04-16T20:38:58.374Z,35.55
2023-04-16T20:41:30.747Z,35.25
2023-04-16T20:44:03.006Z,33.00
2023-04-16T20:46:35.450Z,36.35
2023-04-16T20:49:07.822Z,39.92
2023-04-16T20:51:38.848Z,36.70
2023-04-16T20:54:11.368Z,36.35
2023-04-16T20:56:42.767Z,35.83
2023-04-16T20:59:14.544Z,37.03
2023-04-16T21:01:45.952Z,35.80
2023-04-16T21:04:17.333Z,37.48
2023-04-16T21:06:48.584Z,36.50
2023-04-16T21:09:19.674Z,37.08
2023-04-16T21:11:50.778Z,35.43
2023-04-16T21:14:21.966Z,40.40
2023-04-16T21:16:53.151Z,36.90
2023-04-16T21:19:24.347Z,39.35
2023-04-16T21:21:56.644Z,35.78
2023-04-16T21:24:27.884Z,34.38
2023-04-16T21:26:58.944Z,34.88
2023-04-16T21:29:30.102Z,36.00
2023-04-16T21:32:01.261Z,35.10
2023-04-16T21:34:32.375Z,34.23
2023-04-16T21:37:03.546Z,30.40
2023-04-16T21:39:34.636Z,32.13
2023-04-16T21:42:05.729Z,33.98
2023-04-16T21:44:36.900Z,33.48
2023-04-16T21:47:08.030Z,36.55
2023-04-16T21:49:39.198Z,33.40
2023-04-16T21:52:11.682Z,32.08
2023-04-16T21:54:42.785Z,32.30
2023-04-16T21:57:14.197Z,31.70
2023-04-16T22:02:31.370Z,29.20
2023-04-16T22:05:02.707Z,33.65
2023-04-16T22:07:33.801Z,32.63
2023-04-16T22:10:05.224Z,33.13
2023-04-16T22:12:37.703Z,33.10
2023-04-16T22:15:12.877Z,33.67
2023-04-16T22:17:44.059Z,30.77
2023-04-16T22:20:15.461Z,33.75
2023-04-16T22:22:46.857Z,34.10
2023-04-16T22:25:17.956Z,33.40
2023-04-16T22:27:49.140Z,30.60
2023-04-16T22:30:20.356Z,31.77
2023-04-16T22:32:51.530Z,31.60
2023-04-16T22:35:22.625Z,32.95
2023-04-16T22:37:53.723Z,32.15
2023-04-16T22:40:24.837Z,33.10
2023-04-16T22:42:55.950Z,34.15
2023-04-16T22:45:27.261Z,38.28
2023-04-16T22:47:58.405Z,33.08
2023-04-16T22:50:29.726Z,32.30
2023-04-16T22:53:00.871Z,32.65
2023-04-16T22:55:31.958Z,37.17
2023-04-16T22:58:05.744Z,32.33
2023-04-16T23:00:43.679Z,35.00
2023-04-16T23:03:15.256Z,30.77
2023-04-16T23:05:50.925Z,32.55
2023-04-16T23:08:30.563Z,34.90
2023-04-16T23:11:20.471Z,31.87
2023-04-16T23:14:02.332Z,32.93
2023-04-16T23:16:33.030Z,33.10
2023-04-16T23:19:04.092Z,34.25
2023-04-16T23:21:35.316Z,31.57
2023-04-16T23:24:06.692Z,36.53
2023-04-16T23:26:37.842Z,36.60
2023-04-16T23:29:08.976Z,35.03
2023-04-16T23:31:40.187Z,34.65
2023-04-16T23:34:11.414Z,38.70
2023-04-16T23:36:42.517Z,38.58
2023-04-16T23:39:13.828Z,35.63
2023-04-16T23:41:48.207Z,32.98
2023-04-16T23:44:23.274Z,38.08
2023-04-16T23:46:54.455Z,34.00
2023-04-16T23:49:25.574Z,35.52
2023-04-16T23:55:25.295Z,34.13
